createdAt,value
2019-03-12T00:02:18.724Z,12.10
2019-03-12T00:04:45.533Z,12.27
2019-03-12T00:07:12.545Z,11.70
2019-03-12T00:09:39.414Z,13.80
2019-03-12T00:12:06.291Z,12.60
2019-03-12T00:14:33.326Z,13.93
2019-03-12T00:17:00.125Z,13.17
2019-03-12T00:19:27.078Z,13.47
2019-03-12T00:21:53.959Z,12.13
2019-03-12T00:24:20.830Z,12.13
2019-03-12T00:26:47.639Z,11.33
2019-03-12T00:29:14.540Z,11.57
2019-03-12T00:31:41.348Z,12.33
2019-03-12T00:34:08.358Z,11.70
2019-03-12T00:36:35.219Z,11.07
2019-03-12T00:39:03.063Z,11.80
2019-03-12T00:41:30.322Z,13.87
2019-03-12T00:43:57.167Z,13.90
2019-03-12T00:46:26.949Z,13.50
2019-03-12T00:48:52.707Z,11.40
2019-03-12T00:51:19.869Z,14.30
2019-03-12T00:53:46.735Z,13.50
2019-03-12T00:56:13.532Z,13.77
2019-03-12T00:58:40.435Z,13.93
2019-03-12T01:01:07.259Z,14.47
2019-03-12T01:03:34.079Z,13.10
2019-03-12T01:06:02.073Z,14.23
2019-03-12T01:08:28.885Z,13.67
2019-03-12T01:10:55.688Z,12.63
2019-03-12T01:13:22.534Z,13.20
2019-03-12T01:15:49.439Z,12.80
2019-03-12T01:18:18.347Z,13.03
2019-03-12T01:20:45.463Z,12.60
2019-03-12T01:23:12.339Z,13.10
2019-03-12T01:25:39.152Z,12.70
2019-03-12T01:28:05.994Z,12.80
2019-03-12T01:30:32.768Z,13.20
2019-03-12T01:32:59.568Z,14.00
2019-03-12T01:35:26.422Z,12.87
2019-03-12T01:37:53.336Z,12.53
2019-03-12T01:40:20.152Z,12.30
2019-03-12T01:42:46.992Z,13.37
2019-03-12T01:45:14.020Z,12.03
2019-03-12T01:47:41.011Z,11.40
2019-03-12T01:50:08.309Z,11.07
2019-03-12T01:52:35.155Z,11.17
2019-03-12T01:55:02.161Z,11.20
2019-03-12T01:57:29.100Z,12.50
2019-03-12T01:59:55.919Z,11.30
2019-03-12T02:02:22.734Z,11.50
2019-03-12T02:04:49.644Z,11.47
2019-03-12T02:07:16.407Z,13.53
2019-03-12T02:09:43.212Z,11.40
2019-03-12T02:12:10.157Z,13.33
2019-03-12T02:14:36.987Z,13.30
2019-03-12T02:17:03.887Z,12.53
2019-03-12T02:19:30.689Z,13.40
2019-03-12T02:21:57.471Z,13.03
2019-03-12T02:24:24.326Z,14.67
2019-03-12T02:26:51.196Z,13.60
2019-03-12T02:29:17.997Z,13.33
2019-03-12T02:31:44.944Z,13.83
2019-03-12T02:34:11.741Z,13.23
2019-03-12T02:36:38.591Z,14.53
2019-03-12T02:39:05.612Z,13.13
2019-03-12T02:41:32.401Z,13.70
2019-03-12T02:43:59.468Z,13.33
2019-03-12T02:46:26.244Z,13.63
2019-03-12T02:48:53.374Z,12.70
2019-03-12T02:51:20.245Z,14.40
2019-03-12T02:53:47.361Z,13.70
2019-03-12T02:56:14.535Z,13.23
2019-03-12T02:58:41.649Z,14.53
2019-03-12T03:01:08.455Z,14.80
2019-03-12T03:03:35.391Z,13.67
2019-03-12T03:06:09.836Z,14.17
2019-03-12T03:08:36.697Z,14.00
2019-03-12T03:11:03.524Z,15.67
2019-03-12T03:13:30.296Z,12.90
2019-03-12T03:15:57.068Z,15.33
2019-03-12T03:18:23.923Z,15.20
2019-03-12T03:20:51.151Z,14.97
2019-03-12T03:23:18.009Z,15.27
2019-03-12T03:25:44.843Z,14.90
2019-03-12T03:28:11.646Z,15.13
2019-03-12T03:30:38.460Z,16.03
2019-03-12T03:33:05.305Z,15.17
2019-03-12T03:35:32.171Z,16.00
2019-03-12T03:37:59.026Z,16.90
2019-03-12T03:40:26.633Z,16.93
2019-03-12T03:42:53.415Z,18.43
2019-03-12T03:45:20.373Z,16.93
2019-03-12T03:47:47.320Z,17.50
2019-03-12T03:50:14.334Z,16.20
2019-03-12T03:52:41.241Z,16.70
2019-03-12T03:55:09.145Z,17.33
2019-03-12T03:57:35.953Z,16.67
2019-03-12T04:00:03.655Z,16.67
2019-03-12T04:02:30.568Z,16.73
2019-03-12T04:04:57.427Z,16.10
2019-03-12T04:07:24.248Z,17.20
2019-03-12T04:09:51.080Z,16.90
2019-03-12T04:12:17.895Z,16.57
2019-03-12T04:14:44.656Z,15.13
2019-03-12T04:17:11.526Z,16.03
2019-03-12T04:19:38.434Z,16.60
2019-03-12T04:22:05.392Z,15.87
2019-03-12T04:24:32.211Z,15.23
2019-03-12T04:26:59.005Z,15.57
2019-03-12T04:29:25.816Z,16.37
2019-03-12T04:31:52.622Z,16.20
2019-03-12T04:34:23.747Z,15.93
2019-03-12T04:36:50.784Z,14.40
2019-03-12T04:39:17.680Z,15.67
2019-03-12T04:41:44.493Z,13.97
2019-03-12T04:44:11.314Z,13.40
2019-03-12T04:46:38.231Z,13.50
2019-03-12T04:49:05.273Z,12.90
2019-03-12T04:51:32.047Z,13.80
2019-03-12T04:53:58.852Z,14.53
2019-03-12T04:56:25.868Z,13.23
2019-03-12T04:58:52.635Z,14.07
2019-03-12T05:01:19.459Z,14.20
2019-03-12T05:03:46.325Z,14.40
2019-03-12T05:06:13.476Z,13.47
2019-03-12T05:08:40.533Z,13.50
2019-03-12T05:11:07.312Z,12.10
2019-03-12T05:13:34.080Z,13.03
2019-03-12T05:16:00.874Z,12.23
2019-03-12T05:18:27.639Z,12.73
2019-03-12T05:20:54.432Z,10.53
2019-03-12T05:23:21.307Z,11.83
2019-03-12T05:25:48.115Z,10.27
2019-03-12T05:28:14.918Z,10.10
2019-03-12T05:30:41.774Z,9.40
2019-03-12T05:33:08.623Z,10.20
2019-03-12T05:35:35.408Z,10.50
2019-03-12T05:38:02.242Z,9.97
2019-03-12T05:40:29.007Z,10.20
2019-03-12T05:42:55.817Z,10.03
2019-03-12T05:45:22.615Z,9.00
2019-03-12T05:47:49.422Z,8.50
2019-03-12T05:50:16.229Z,8.87
2019-03-12T05:52:43.064Z,8.47
2019-03-12T05:55:09.962Z,9.27
2019-03-12T05:57:56.472Z,8.77
2019-03-12T06:00:24.333Z,9.53
2019-03-12T06:02:51.134Z,9.23
2019-03-12T06:05:17.974Z,8.57
2019-03-12T06:07:44.876Z,8.30
2019-03-12T06:10:11.900Z,9.20
2019-03-12T06:12:38.699Z,8.10
2019-03-12T06:15:05.811Z,7.93
2019-03-12T06:17:32.592Z,8.03
2019-03-12T06:19:59.697Z,7.67
2019-03-12T06:22:26.471Z,7.07
2019-03-12T06:24:53.253Z,7.80
2019-03-12T06:27:20.090Z,6.70
2019-03-12T06:29:46.889Z,6.10
2019-03-12T06:32:33.433Z,10.10
2019-03-12T06:35:19.941Z,9.20
2019-03-12T06:38:06.843Z,8.53
2019-03-12T06:40:39.468Z,7.90
2019-03-12T06:43:17.536Z,7.50
2019-03-12T06:45:51.391Z,9.43
2019-03-12T06:48:36.899Z,11.60
2019-03-12T06:51:09.985Z,11.30
2019-03-12T06:53:59.395Z,7.50
2019-03-12T06:56:45.988Z,7.83
2019-03-12T06:59:25.929Z,9.13
2019-03-12T07:02:03.418Z,7.83
2019-03-12T07:05:05.061Z,9.30
2019-03-12T07:07:50.617Z,8.80
2019-03-12T07:10:43.330Z,8.80
2019-03-12T07:13:28.476Z,15.43
2019-03-12T07:16:09.049Z,10.23
2019-03-12T07:18:53.858Z,8.40
2019-03-12T07:21:27.287Z,10.00
2019-03-12T07:24:15.848Z,10.77
2019-03-12T07:26:54.740Z,10.30
2019-03-12T07:29:37.252Z,9.67
2019-03-12T07:32:17.431Z,10.40
2019-03-12T07:34:52.064Z,28.77
2019-03-12T07:37:38.685Z,17.00
2019-03-12T07:40:15.725Z,14.70
2019-03-12T07:43:05.360Z,11.70
2019-03-12T07:45:36.855Z,14.93
2019-03-12T07:48:26.052Z,14.57
2019-03-12T07:51:18.603Z,13.57
2019-03-12T07:53:59.802Z,32.40
2019-03-12T07:56:30.079Z,20.40
2019-03-12T07:59:23.696Z,12.07
2019-03-12T08:01:58.983Z,10.87
2019-03-12T08:04:43.784Z,9.47
2019-03-12T08:07:29.521Z,10.47
2019-03-12T08:10:02.543Z,9.70
2019-03-12T08:12:35.946Z,11.10
2019-03-12T08:15:23.382Z,12.27
2019-03-12T08:18:11.833Z,11.00
2019-03-12T08:20:47.195Z,14.40
2019-03-12T08:23:26.206Z,11.50
2019-03-12T08:26:16.060Z,11.80
2019-03-12T08:28:49.859Z,14.40
2019-03-12T08:31:42.448Z,12.33
2019-03-12T08:34:34.143Z,10.63
2019-03-12T08:37:09.392Z,10.60
2019-03-12T08:40:04.958Z,10.40
2019-03-12T08:42:38.025Z,9.07
2019-03-12T08:45:15.725Z,10.40
2019-03-12T08:48:06.235Z,9.40
2019-03-12T08:50:40.288Z,9.90
2019-03-12T08:53:14.116Z,8.80
2019-03-12T08:56:09.453Z,9.57
2019-03-12T08:58:48.252Z,8.43
2019-03-12T09:01:20.841Z,8.37
2019-03-12T09:04:07.110Z,10.30
2019-03-12T09:06:40.336Z,10.03
2019-03-12T09:09:22.144Z,8.27
2019-03-12T09:12:14.027Z,8.87
2019-03-12T09:14:53.063Z,7.50
2019-03-12T09:17:45.300Z,7.70
2019-03-12T09:20:40.898Z,7.83
2019-03-12T09:23:21.691Z,7.00
2019-03-12T09:26:07.272Z,7.90
2019-03-12T09:28:52.409Z,8.13
2019-03-12T09:31:35.272Z,7.23
2019-03-12T09:34:20.693Z,6.57
2019-03-12T09:37:05.997Z,6.50
2019-03-12T09:40:04.600Z,7.20
2019-03-12T09:42:50.000Z,6.40
2019-03-12T09:45:25.177Z,5.83
2019-03-12T09:47:58.555Z,6.13
2019-03-12T09:50:47.798Z,7.73
2019-03-12T09:53:37.161Z,5.30
2019-03-12T09:56:10.385Z,4.60
2019-03-12T09:58:42.657Z,4.30
2019-03-12T10:01:41.428Z,4.87
2019-03-12T10:04:24.612Z,4.53
2019-03-12T10:07:02.563Z,5.80
2019-03-12T10:09:42.625Z,5.60
2019-03-12T10:12:36.601Z,5.33
2019-03-12T10:15:21.908Z,3.70
2019-03-12T10:18:12.245Z,4.37
2019-03-12T10:20:55.796Z,4.40
2019-03-12T10:23:33.197Z,4.00
2019-03-12T10:26:11.292Z,4.13
2019-03-12T10:28:56.281Z,3.30
2019-03-12T10:31:33.292Z,4.47
2019-03-12T10:34:13.380Z,4.50
2019-03-12T10:37:16.502Z,3.00
2019-03-12T10:39:54.167Z,3.57
2019-03-12T10:42:30.370Z,2.93
2019-03-12T10:45:11.435Z,2.37
2019-03-12T10:47:38.370Z,2.63
2019-03-12T10:50:05.295Z,1.87
2019-03-12T10:52:32.113Z,1.97
2019-03-12T10:55:11.759Z,1.53
2019-03-12T10:57:27.608Z,2.00
2019-03-12T10:59:54.389Z,2.33
2019-03-12T11:02:21.209Z,2.40
2019-03-12T11:04:48.256Z,2.33
2019-03-12T11:07:16.941Z,1.70
2019-03-12T11:09:44.076Z,1.70
2019-03-12T11:12:10.987Z,2.60
2019-03-12T11:14:37.974Z,3.07
2019-03-12T11:17:04.801Z,2.17
2019-03-12T11:19:31.617Z,2.10
2019-03-12T11:21:58.432Z,1.83
2019-03-12T11:24:25.351Z,1.40
2019-03-12T11:26:52.180Z,1.90
2019-03-12T11:29:19.058Z,1.97
2019-03-12T11:31:46.054Z,1.70
2019-03-12T11:34:13.048Z,3.20
2019-03-12T11:36:39.832Z,1.97
2019-03-12T11:39:06.764Z,2.47
2019-03-12T11:41:33.597Z,2.20
2019-03-12T11:44:00.506Z,1.77
2019-03-12T11:46:27.333Z,11.70
2019-03-12T11:55:20.463Z,6.80
2019-03-12T11:57:47.260Z,2.40
2019-03-12T12:00:28.160Z,2.00
2019-03-12T12:03:00.422Z,1.50
2019-03-12T12:05:23.844Z,1.90
2019-03-12T12:07:50.448Z,1.27
2019-03-12T12:10:17.283Z,2.40
2019-03-12T12:12:44.014Z,1.80
2019-03-12T12:15:11.096Z,2.17
2019-03-12T12:17:37.711Z,2.23
2019-03-12T12:20:04.518Z,2.47
2019-03-12T12:22:31.343Z,1.90
2019-03-12T12:24:58.444Z,1.63
2019-03-12T12:27:25.011Z,2.10
2019-03-12T12:29:51.673Z,1.53
2019-03-12T12:32:18.251Z,1.50
2019-03-12T12:34:44.844Z,1.67
2019-03-12T12:37:13.729Z,2.00
2019-03-12T12:39:40.058Z,2.00
2019-03-12T12:42:06.681Z,1.90
2019-03-12T12:44:33.289Z,1.90
2019-03-12T12:46:59.929Z,1.80
2019-03-12T12:49:26.566Z,2.20
2019-03-12T12:51:53.228Z,1.60
2019-03-12T12:54:20.255Z,1.53
2019-03-12T12:56:46.858Z,2.00
2019-03-12T12:59:13.598Z,2.00
2019-03-12T13:01:40.276Z,2.03
2019-03-12T13:04:06.882Z,2.53
2019-03-12T13:06:33.639Z,2.10
2019-03-12T13:09:00.403Z,1.80
2019-03-12T13:11:27.164Z,2.40
2019-03-12T13:13:54.107Z,2.10
2019-03-12T13:16:25.501Z,2.10
2019-03-12T13:18:49.219Z,2.17
2019-03-12T13:21:15.908Z,2.57
2019-03-12T13:23:42.480Z,2.20
2019-03-12T13:26:09.145Z,2.70
2019-03-12T13:28:35.772Z,3.13
2019-03-12T13:31:02.393Z,2.97
2019-03-12T13:33:29.057Z,3.13
2019-03-12T13:35:55.673Z,2.93
2019-03-12T13:38:22.526Z,2.90
2019-03-12T13:40:49.706Z,3.13
2019-03-12T13:43:16.859Z,2.40
2019-03-12T13:45:43.573Z,3.20
2019-03-12T13:48:10.424Z,3.03
2019-03-12T13:50:37.509Z,2.70
2019-03-12T13:53:04.204Z,12.93
2019-03-12T13:55:30.952Z,4.53
2019-03-12T13:57:57.692Z,3.43
2019-03-12T14:00:24.288Z,3.00
2019-03-12T14:02:51.276Z,3.27
2019-03-12T14:05:18.162Z,3.23
2019-03-12T14:07:45.167Z,2.97
2019-03-12T14:10:14.385Z,3.50
2019-03-12T14:12:41.112Z,4.70
2019-03-12T14:15:09.804Z,5.20
2019-03-12T14:17:36.423Z,3.40
2019-03-12T14:20:39.848Z,4.30
2019-03-12T14:23:06.671Z,3.83
2019-03-12T14:25:33.534Z,4.77
2019-03-12T14:28:00.164Z,5.87
2019-03-12T14:30:26.792Z,3.40
2019-03-12T14:32:53.516Z,3.30
2019-03-12T14:35:20.565Z,3.00
2019-03-12T14:37:47.137Z,3.80
2019-03-12T14:40:13.955Z,3.87
2019-03-12T14:42:40.621Z,4.60
2019-03-12T14:45:10.446Z,5.37
2019-03-12T14:47:37.515Z,4.07
2019-03-12T14:50:06.107Z,4.80
2019-03-12T14:52:36.753Z,5.47
2019-03-12T14:55:04.336Z,5.00
2019-03-12T14:57:30.968Z,3.73
2019-03-12T14:59:57.541Z,3.97
2019-03-12T15:02:24.319Z,4.00
2019-03-12T15:04:50.931Z,4.80
2019-03-12T15:07:17.536Z,4.70
2019-03-12T15:09:44.167Z,4.67
2019-03-12T15:12:12.071Z,4.27
2019-03-12T15:14:38.985Z,4.03
2019-03-12T15:17:05.606Z,5.07
2019-03-12T15:19:32.243Z,4.00
2019-03-12T15:21:58.840Z,4.20
2019-03-12T15:24:25.428Z,5.67
2019-03-12T15:26:52.084Z,4.87
2019-03-12T15:29:18.744Z,4.73
2019-03-12T15:31:45.420Z,4.83
2019-03-12T15:34:12.776Z,5.10
2019-03-12T15:36:39.557Z,4.40
2019-03-12T15:39:07.331Z,4.40
2019-03-12T15:41:33.964Z,4.70
2019-03-12T15:44:01.567Z,4.10
2019-03-12T15:46:28.200Z,5.50
2019-03-12T15:48:54.905Z,5.10
2019-03-12T15:51:21.607Z,5.77
2019-03-12T15:53:48.184Z,5.40
2019-03-12T15:56:15.127Z,4.97
2019-03-12T15:58:41.804Z,4.93
2019-03-12T16:01:08.484Z,4.07
2019-03-12T16:03:35.201Z,4.43
2019-03-12T16:06:01.796Z,5.77
2019-03-12T16:08:28.413Z,4.67
2019-03-12T16:10:58.300Z,4.97
2019-03-12T16:13:23.873Z,4.77
2019-03-12T16:15:50.590Z,4.77
2019-03-12T16:18:17.261Z,5.37
2019-03-12T16:20:43.849Z,7.10
2019-03-12T16:23:10.443Z,5.03
2019-03-12T16:25:37.077Z,7.00
2019-03-12T16:28:03.804Z,6.77
2019-03-12T16:30:30.423Z,5.23
2019-03-12T16:32:57.061Z,5.97
2019-03-12T16:35:23.681Z,5.97
2019-03-12T16:37:50.318Z,5.50
2019-03-12T16:40:16.940Z,4.53
2019-03-12T16:42:43.582Z,4.73
2019-03-12T16:45:10.320Z,5.83
2019-03-12T16:47:37.028Z,4.73
2019-03-12T16:50:04.095Z,4.30
2019-03-12T16:52:30.681Z,5.13
2019-03-12T16:54:57.263Z,4.93
2019-03-12T16:57:23.906Z,4.60
2019-03-12T16:59:50.567Z,4.70
2019-03-12T17:02:17.213Z,6.13
2019-03-12T17:04:43.863Z,5.23
2019-03-12T17:07:10.498Z,4.60
2019-03-12T17:09:38.946Z,6.37
2019-03-12T17:12:05.825Z,3.60
2019-03-12T17:14:38.693Z,4.20
2019-03-12T17:17:01.033Z,4.50
2019-03-12T17:19:27.996Z,4.50
2019-03-12T17:21:54.654Z,4.10
2019-03-12T17:24:21.737Z,4.37
2019-03-12T17:26:48.328Z,4.30
2019-03-12T17:29:16.190Z,3.80
2019-03-12T17:31:43.256Z,4.63
2019-03-12T17:34:10.246Z,4.00
2019-03-12T17:36:37.104Z,4.10
2019-03-12T17:39:05.695Z,4.00
2019-03-12T17:41:32.355Z,3.30
2019-03-12T17:43:58.987Z,4.30
2019-03-12T17:46:25.716Z,4.30
2019-03-12T17:48:52.367Z,5.20
2019-03-12T17:51:19.103Z,4.63
2019-03-12T17:53:45.774Z,6.07
2019-03-12T17:56:12.453Z,4.43
2019-03-12T17:58:58.950Z,4.43
2019-03-12T18:01:29.752Z,3.70
2019-03-12T18:03:54.507Z,4.47
2019-03-12T18:06:21.326Z,5.03
2019-03-12T18:08:48.004Z,4.40
2019-03-12T18:11:14.629Z,6.20
2019-03-12T18:13:41.262Z,5.63
2019-03-12T18:16:07.975Z,3.50
2019-03-12T18:18:35.280Z,4.07
2019-03-12T18:21:01.927Z,6.13
2019-03-12T18:23:28.858Z,4.40
2019-03-12T18:25:55.556Z,4.00
2019-03-12T18:28:22.420Z,4.43
2019-03-12T18:30:51.273Z,4.60
2019-03-12T18:33:18.721Z,5.30
2019-03-12T18:35:45.440Z,8.47
2019-03-12T18:38:12.032Z,5.17
2019-03-12T18:40:38.900Z,4.80
2019-03-12T18:43:05.617Z,4.60
2019-03-12T18:45:32.377Z,4.77
2019-03-12T18:47:59.238Z,5.10
2019-03-12T18:50:26.067Z,4.70
2019-03-12T18:52:52.781Z,4.37
2019-03-12T18:55:39.553Z,4.30
2019-03-12T18:58:06.282Z,3.87
2019-03-12T19:00:33.036Z,4.50
2019-03-12T19:02:59.823Z,7.17
2019-03-12T19:05:28.227Z,3.60
2019-03-12T19:07:55.141Z,4.50
2019-03-12T19:10:22.127Z,3.53
2019-03-12T19:12:49.007Z,4.47
2019-03-12T19:15:16.691Z,3.40
2019-03-12T19:17:43.563Z,4.10
2019-03-12T19:20:10.421Z,4.10
2019-03-12T19:22:37.151Z,3.73
2019-03-12T19:25:04.390Z,3.27
2019-03-12T19:27:31.189Z,4.03
2019-03-12T19:29:57.872Z,3.60
2019-03-12T19:32:30.784Z,4.37
2019-03-12T19:34:57.368Z,4.70
2019-03-12T19:37:24.065Z,3.70
2019-03-12T19:39:50.813Z,4.60
2019-03-12T19:42:17.411Z,3.83
2019-03-12T19:44:44.123Z,3.90
2019-03-12T19:47:11.154Z,3.33
2019-03-12T19:49:37.879Z,2.83
2019-03-12T19:52:06.203Z,3.73
2019-03-12T19:54:33.249Z,3.70
2019-03-12T19:57:00.049Z,4.10
2019-03-12T19:59:26.780Z,3.97
2019-03-12T20:01:58.858Z,3.90
2019-03-12T20:04:25.675Z,4.10
2019-03-12T20:06:52.696Z,5.63
2019-03-12T20:09:44.779Z,5.40
2019-03-12T20:12:42.996Z,4.40
2019-03-12T20:15:43.161Z,3.57
2019-03-12T20:18:55.048Z,3.80
2019-03-12T20:22:18.439Z,3.00
2019-03-12T20:25:22.314Z,3.40
2019-03-12T20:28:36.469Z,3.30
2019-03-12T20:31:54.887Z,4.20
2019-03-12T20:35:05.908Z,3.07
2019-03-12T20:38:23.264Z,3.37
2019-03-12T20:42:05.833Z,3.63
2019-03-12T20:45:12.785Z,3.40
2019-03-12T20:48:20.062Z,3.47
2019-03-12T20:51:43.421Z,3.53
2019-03-12T20:54:55.882Z,3.70
2019-03-12T20:57:57.416Z,4.27
2019-03-12T21:01:13.192Z,2.80
2019-03-12T21:04:22.471Z,3.53
2019-03-12T21:07:27.643Z,3.20
2019-03-12T21:10:31.450Z,3.10
2019-03-12T21:13:48.925Z,3.30
2019-03-12T21:17:00.585Z,3.10
2019-03-12T21:20:04.420Z,3.30
2019-03-12T21:22:56.197Z,3.47
2019-03-12T21:25:52.717Z,3.20
2019-03-12T21:28:54.910Z,3.50
2019-03-12T21:31:21.885Z,3.50
2019-03-12T21:33:48.719Z,3.33
2019-03-12T21:36:15.486Z,3.10
2019-03-12T21:38:42.224Z,3.97
2019-03-12T21:41:09.189Z,3.50
2019-03-12T21:43:35.870Z,2.70
2019-03-12T21:46:02.896Z,2.23
2019-03-12T21:48:29.915Z,2.97
2019-03-12T21:50:56.541Z,2.60
2019-03-12T21:53:23.151Z,2.67
2019-03-12T21:55:49.916Z,2.63
2019-03-12T21:58:16.523Z,2.47
2019-03-12T22:00:43.250Z,3.13
2019-03-12T22:03:10.146Z,2.67
2019-03-12T22:05:36.767Z,2.60
2019-03-12T22:08:04.631Z,3.13
2019-03-12T22:10:31.302Z,3.00
2019-03-12T22:12:58.012Z,2.70
2019-03-12T22:15:24.772Z,2.87
2019-03-12T22:17:51.474Z,2.77
2019-03-12T22:20:18.158Z,2.60
2019-03-12T22:22:49.636Z,2.90
2019-03-12T22:25:16.554Z,2.73
2019-03-12T22:27:43.438Z,2.70
2019-03-12T22:30:13.529Z,3.10
2019-03-12T22:32:43.363Z,2.00
2019-03-12T22:35:13.901Z,3.20
2019-03-12T22:37:44.363Z,3.67
2019-03-12T22:40:14.875Z,3.07
2019-03-12T22:42:41.769Z,2.67
2019-03-12T22:45:09.156Z,2.80
2019-03-12T22:47:37.111Z,2.60
2019-03-12T22:50:04.340Z,3.20
2019-03-12T22:52:31.071Z,2.40
2019-03-12T22:54:57.889Z,2.63
2019-03-12T22:57:24.517Z,2.60
2019-03-12T22:59:51.725Z,2.40
2019-03-12T23:02:18.520Z,2.10
2019-03-12T23:04:45.544Z,1.90
2019-03-12T23:07:12.302Z,2.63
2019-03-12T23:09:39.512Z,2.50
2019-03-12T23:12:06.167Z,2.87
2019-03-12T23:14:33.025Z,3.00
2019-03-12T23:16:59.771Z,2.30
2019-03-12T23:19:26.599Z,2.00
2019-03-12T23:21:53.278Z,2.13
2019-03-12T23:24:20.266Z,1.70
2019-03-12T23:26:46.957Z,1.50
2019-03-12T23:29:13.836Z,2.30
2019-03-12T23:31:40.627Z,1.93
2019-03-12T23:34:07.288Z,2.10
2019-03-12T23:36:34.012Z,1.97
2019-03-12T23:39:00.719Z,1.90
2019-03-12T23:41:27.341Z,1.83
2019-03-12T23:43:54.127Z,1.80
2019-03-12T23:46:20.920Z,1.80
2019-03-12T23:48:47.595Z,1.90
2019-03-12T23:51:14.416Z,1.50
2019-03-12T23:53:41.022Z,1.57
2019-03-12T23:56:07.993Z,1.50
2019-03-12T23:58:35.127Z,1.20
